Nearby METAR Reports


KANE - Minneapls/Blaine, Minnesota, USA
Distance from station: ESE 8mi, 13km
Updated: 01/27/2023 11:45am
Blowing snow, Partly cloudy
Blowing snow, Partly cloudy
 Wind from WNW
Wind: WNW 21 mph , 33 km/h, Gust: 28 mph , 44 km/h
Temperature: 23°F , -5°C
Wind Chill: 8°F , -13°C
Dew Point: 16°F , -9°C
Humidity: 74%
Barometer: 29.61 inHg , 1002.7 hPa
Summary: Blowing Snow
Clouds: Partly cloudy
Visibility: 10 miles , 16 km
Cloud details: Partly cloudy 2300 ft
2023/01/27 17:45 KANE 271745Z 29018G24KT 10SM BLSN SCT023 M05/M09 A2961
KMIC - Mnpls/Crystal, Minnesota, USA
Distance from station: S 8mi, 14km
Updated: 01/27/2023 11:53am
Partly cloudy
Partly cloudy
 Wind from WNW
Wind: WNW 17 mph , 28 km/h, Gust: 33 mph , 54 km/h
Temperature: 21°F , -6°C
Wind Chill: 7°F , -14°C
Dew Point: 12°F , -11°C
Humidity: 68%
Barometer: 29.64 inHg , 1003.7 hPa
Clouds: Partly cloudy
Visibility: 10 miles , 16 km
Cloud details: Partly cloudy 2200 ft
2023/01/27 17:53 KMIC 271753Z 30015G29KT 10SM SCT022 M06/M11 A2964 RMK AO2 PK WND 29042/1657 UPB09E17 SLP050 P0000 60000 T10561106 10011 21056 51029
 
KMSP - Minneapolis, Minnesota, USA
Distance from station: SSE 22mi, 35km
Updated: 01/27/2023 11:53am
Mostly cloudy
Mostly cloudy
 Wind from NW
Wind: NW 21 mph , 33 km/h, Gust: 36 mph , 57 km/h
Temperature: 21°F , -6°C
Wind Chill: 5°F , -15°C
Dew Point: 14°F , -10°C
Humidity: 74%
Barometer: 29.64 inHg , 1003.7 hPa
Clouds: Mostly cloudy
Visibility: 10 miles , 16 km
Cloud details: Partly cloudy 2100 ft
Mostly cloudy 25000 ft
2023/01/27 17:53 KMSP 271753Z 31018G31KT 10SM SCT021 BKN250 M06/M10 A2964 RMK AO2 PK WND 29034/1715 SLP051 4/011 60001 T10561100 10006 21061 51046
KSTP - St. Paul, Minnesota, USA
Distance from station: SE 23mi, 38km
Updated: 01/27/2023 11:53am
Partly cloudy
Partly cloudy
 Wind from NW
Wind: NW 21 mph , 33 km/h, Gust: 33 mph , 54 km/h
Temperature: 23°F , -5°C
Wind Chill: 8°F , -13°C
Dew Point: 14°F , -10°C
Humidity: 68%
Barometer: 29.64 inHg , 1003.7 hPa
Clouds: Partly cloudy
Visibility: 10 miles , 16 km
Cloud details: Partly cloudy 2200 ft
2023/01/27 17:53 KSTP 271753Z 31018G29KT 10SM SCT022 M05/M10 A2964 RMK AO2 PK WND 30032/1726 SLP047 60001 T10501100 10017 21050 51047
 
KCFE - Buffalo Muni, Minnesota, USA
Distance from station: W 24mi, 38km
Updated: 01/27/2023 11:55am
Few Clouds
Few Clouds
 Wind from WNW
Wind: WNW 24 mph , 39 km/h, Gust: 31 mph , 50 km/h
Temperature: 19°F , -7°C
Wind Chill: 2°F , -17°C
Dew Point: 10°F , -12°C
Humidity: 68%
Barometer: 29.67 inHg , 1004.7 hPa
Clouds: Few Clouds
Visibility: 9 miles , 14 km
Cloud details: Few Clouds 2500 ft
2023/01/27 17:55 KCFE 271755Z AUTO 29021G27KT 9SM FEW025 M07/M12 A2967 RMK AO2
KFCM - Mnpls/Flying Cld, Minnesota, USA
Distance from station: S 25mi, 40km
Updated: 01/27/2023 11:53am
Partly cloudy
Partly cloudy
 Wind from WNW
Wind: WNW 23 mph , 37 km/h, Gust: 33 mph , 54 km/h
Temperature: 21°F , -6°C
Wind Chill: 5°F , -15°C
Dew Point: 12°F , -11°C
Humidity: 68%
Barometer: 29.64 inHg , 1003.7 hPa
Clouds: Partly cloudy
Visibility: 10 miles , 16 km
Cloud details: Partly cloudy 2200 ft
2023/01/27 17:53 KFCM 271753Z 30020G29KT 10SM SCT022 M06/M11 A2964 RMK AO2 PK WND 29032/1658 SLP052 60000 T10611111 10017 21061 51044
 
KCBG - Cambridge Muni, Minnesota, USA
Distance from station: N 27mi, 43km
Updated: 01/27/2023 11:55am

 Wind from W
Wind: W 20 mph , 31 km/h, Gust: 28 mph , 44 km/h
Temperature: 23°F , -5°C
Wind Chill: 8°F , -13°C
Dew Point: 9°F , -13°C
Humidity: 54%
Barometer: 29.61 inHg , 1002.7 hPa
Visibility: 7 miles , 11 km
2023/01/27 17:55 KCBG 271755Z AUTO 28017G24KT 7SM M05/M13 A2961 RMK AO2
KPNM - Princeton Muni, Minnesota, USA
Distance from station: NNW 27mi, 44km
Updated: 01/27/2023 11:55am
Partly cloudy
Partly cloudy
 Wind from W
Wind: W 20 mph , 31 km/h, Gust: 26 mph , 43 km/h
Temperature: 21°F , -6°C
Wind Chill: 6°F , -14°C
Dew Point: 12°F , -11°C
Humidity: 68%
Barometer: 29.64 inHg , 1003.7 hPa
Clouds: Partly cloudy
Visibility: 7 miles , 11 km
Cloud details: Partly cloudy 2200 ft
2023/01/27 17:55 KPNM 271755Z AUTO 28017G23KT 7SM SCT022 M06/M11 A2964 RMK AO
 
K21D - Lake Elmo, Minnesota, USA
Distance from station: ESE 28mi, 46km
Updated: 01/27/2023 11:55am
Overcast
Overcast
 Wind from WNW
Wind: WNW 16 mph , 26 km/h, Gust: 22 mph , 35 km/h
Temperature: 23°F , -5°C
Wind Chill: 10°F , -12°C
Dew Point: 16°F , -9°C
Humidity: 74%
Barometer: 29.61 inHg , 1002.7 hPa
Clouds: Overcast
Visibility: 10 miles , 16 km
Cloud details: Overcast 2100 ft
2023/01/27 17:55 K21D 271755Z AUTO 29014G19KT 10SM OVC021 M05/M09 A2961 RMK AO2
KSGS - South St Paul, Minnesota, USA
Distance from station: SE 28mi, 46km
Updated: 01/27/2023 11:55am
Partly cloudy
Partly cloudy
 Wind from NW
Wind: NW 20 mph , 31 km/h, Gust: 26 mph , 43 km/h
Temperature: 25°F , -4°C
Wind Chill: 11°F , -12°C
Dew Point: 14°F , -10°C
Humidity: 63%
Barometer: 29.63 inHg , 1003.4 hPa
Clouds: Partly cloudy
Visibility: 10 miles , 16 km
Cloud details: Partly cloudy 2000 ft
2023/01/27 17:55 KSGS 271755Z AUTO 32017G23KT 10SM SCT020 M04/M10 A2963 RMK AO2 T10451097 10016 21045
 
KMGG - Maple Lake, Minnesota, USA
Distance from station: W 30mi, 48km
Updated: 01/27/2023 11:55am
Clear
Clear
 Wind from WNW
Wind: WNW 21 mph , 33 km/h
Temperature: 21°F , -6°C
Wind Chill: 5°F , -15°C
Dew Point: 10°F , -12°C
Humidity: 63%
Barometer: 29.68 inHg , 1005.1 hPa
Clouds: Clear
Visibility: 10 miles , 16 km
2023/01/27 17:55 KMGG 271755Z AUTO 29018KT 10SM CLR M06/M12 A2968 RMK AO2 T10621116 10018 21064 PWINO
KOEO - Osceola, Wisconsin, USA
Distance from station: ENE 34mi, 55km
Updated: 01/27/2023 11:55am
Overcast
Overcast
 Wind from WNW
Wind: WNW 21 mph , 33 km/h, Gust: 25 mph , 41 km/h
Temperature: 25°F , -4°C
Wind Chill: 10°F , -12°C
Dew Point: 21°F , -6°C
Humidity: 86%
Barometer: 29.61 inHg , 1002.7 hPa
Clouds: Overcast
Visibility: 10 miles , 16 km
Cloud details: Overcast 2200 ft
2023/01/27 17:55 KOEO 271755Z AUTO 29018G22KT 10SM OVC022 M04/M06 A2961 RMK AO2 T10371061 11010 21038 PWINO
 
KLVN - Mnpls/Airlake, Minnesota, USA
Distance from station: S 39mi, 63km
Updated: 01/27/2023 11:55am
Overcast
Overcast
 Wind from WNW
Wind: WNW 20 mph , 31 km/h, Gust: 28 mph , 44 km/h
Temperature: 21°F , -6°C
Wind Chill: 6°F , -14°C
Dew Point: 14°F , -10°C
Humidity: 74%
Barometer: 29.64 inHg , 1003.7 hPa
Clouds: Overcast
Visibility: 10 miles , 16 km
Cloud details: Overcast 1900 ft
2023/01/27 17:55 KLVN 271755Z AUTO 29017G24KT 10SM OVC019 M06/M10 A2964 RMK AO2
KRNH - New Richmond Mun, Wisconsin, USA
Distance from station: E 41mi, 66km
Updated: 01/27/2023 11:55am
Overcast
Overcast
 Wind from WNW
Wind: WNW 16 mph , 26 km/h, Gust: 26 mph , 43 km/h
Temperature: 25°F , -4°C
Wind Chill: 12°F , -11°C
Dew Point: 23°F , -5°C
Humidity: 93%
Barometer: 29.57 inHg , 1001.4 hPa
Clouds: Overcast
Visibility: 7 miles , 11 km
Cloud details: Overcast 2100 ft
2023/01/27 17:55 KRNH 271755Z AUTO 29014G23KT 7SM OVC021 M04/M05 A2957 RMK AO2 T10451055 11008 21046
 
KROS - Rush City, Minnesota, USA
Distance from station: NNE 41mi, 66km
Updated: 01/27/2023 11:55am
Partly cloudy
Partly cloudy
 Wind from NW
Wind: NW 10 mph , 17 km/h, Gust: 23 mph , 37 km/h
Temperature: 30°F , -1°C
Wind Chill: 21°F , -6°C
Dew Point: 18°F , -8°C
Humidity: 59%
Barometer: 29.58 inHg , 1001.7 hPa
Clouds: Partly cloudy
Visibility: 10 miles , 16 km
Cloud details: Partly cloudy 2100 ft
Partly cloudy 3000 ft
Partly cloudy 7000 ft
2023/01/27 17:55 KROS 271755Z AUTO 32009G20KT 10SM SCT021 SCT030 SCT070 M01/M08 A2958 RMK AO2 T10141082 10000 21025
KSTC - St. Cloud, Minnesota, USA
Distance from station: NW 41mi, 67km
Updated: 01/27/2023 11:53am
Few Clouds
Few Clouds
 Wind from WNW
Wind: WNW 21 mph , 33 km/h, Gust: 30 mph , 48 km/h
Temperature: 18°F , -8°C
Wind Chill: 1°F , -17°C
Dew Point: 10°F , -12°C
Humidity: 73%
Barometer: 29.65 inHg , 1004.1 hPa
Clouds: Few Clouds
Visibility: 7 miles , 11 km
Cloud details: Few Clouds 2300 ft
2023/01/27 17:53 KSTC 271753Z 30018G26KT 7SM FEW023 M08/M12 A2965 RMK AO2 PK WND 29029/1734 SLP067 60000 T10781122 10000 21078 51040
 
KGYL - Glencoe, Minnesota, USA
Distance from station: SW 46mi, 74km
Updated: 01/27/2023 11:55am
Haze, Mostly cloudy
Haze, Mostly cloudy
 Wind from WNW
Wind: WNW 25 mph , 41 km/h, Gust: 33 mph , 54 km/h
Temperature: 19°F , -7°C
Wind Chill: 1°F , -17°C
Dew Point: 12°F , -11°C
Humidity: 73%
Barometer: 29.69 inHg , 1005.4 hPa
Summary: Haze
Clouds: Mostly cloudy
Visibility: 2 1/2 miles , 4 km
Cloud details: Mostly cloudy 1500 ft
2023/01/27 17:55 KGYL 271755Z AUTO 30022G29KT 2 1/2SM HZ BKN015 M07/M11 A2969 RMK AO2 T10731114 10018 21073
KJMR - Mora, Minnesota, USA
Distance from station: N 48mi, 78km
Updated: 01/27/2023 11:55am
Mostly cloudy
Mostly cloudy
 Wind from NW
Wind: NW 14 mph , 22 km/h, Gust: 24 mph , 39 km/h
Temperature: 27°F , -3°C
Wind Chill: 16°F , -9°C
Dew Point: 14°F , -10°C
Humidity: 59%
Barometer: 29.62 inHg , 1003 hPa
Clouds: Mostly cloudy
Visibility: 10 miles , 16 km
Cloud details: Mostly cloudy 2900 ft
2023/01/27 17:55 KJMR 271755Z AUTO 31012G21KT 10SM BKN029 M03/M10 A2962 RMK AO2